Time;durP1;ratioP1;P1;durP2;ratioP2;P2;SDS_P1;SDS_P2;PMS_P1;PMS_P2;Temp;Humidity;BMP_temperature;BMP_pressure;BME280_temperature;BME280_humidity;BME280_pressure;Samples;Min_cycle;Max_cycle;Signal;HPM_P1;HPM_P2
2023/11/24 00:01:21;;;;;;;38.50;12.32;;;;;;;;;;5091036;28;20040;-47
2023/11/24 00:03:47;;;;;;;34.65;11.73;;;;;;;;;;5092328;28;20065;-47
2023/11/24 00:06:14;;;;;;;41.08;12.13;;;;;;;;;;5095666;28;20312;-49
2023/11/24 00:08:41;;;;;;;34.60;11.73;;;;;;;;;;5087266;28;20024;-43
2023/11/24 00:11:08;;;;;;;34.50;12.02;;;;;;;;;;5095545;28;20064;-45
2023/11/24 00:13:35;;;;;;;33.83;11.25;;;;;;;;;;5087371;28;20019;-52
2023/11/24 00:16:03;;;;;;;32.15;12.13;;;;;;;;;;5086426;28;20144;-45
2023/11/24 00:18:31;;;;;;;33.50;11.05;;;;;;;;;;5087538;28;20055;-49
2023/11/24 00:21:05;;;;;;;36.58;11.55;;;;;;;;;;5092615;28;20214;-50
2023/11/24 00:23:33;;;;;;;29.80;12.18;;;;;;;;;;5084569;28;20031;-56
2023/11/24 00:26:00;;;;;;;33.42;12.00;;;;;;;;;;5084445;28;20033;-44
2023/11/24 00:28:27;;;;;;;32.25;11.93;;;;;;;;;;5084817;28;20032;-48
2023/11/24 00:30:56;;;;;;;30.13;11.90;;;;;;;;;;5093732;28;20221;-44
2023/11/24 00:33:23;;;;;;;23.40;10.90;;;;;;;;;;5091909;28;20283;-46
2023/11/24 00:35:50;;;;;;;22.70;10.55;;;;;;;;;;5084048;28;20029;-44
2023/11/24 00:38:17;;;;;;;24.50;10.65;;;;;;;;;;5084298;28;20024;-44
2023/11/24 00:40:43;;;;;;;26.27;10.50;;;;;;;;;;5086315;28;20020;-44
2023/11/24 00:43:10;;;;;;;24.00;10.63;;;;;;;;;;5096013;28;20312;-45
2023/11/24 00:45:37;;;;;;;25.80;10.25;;;;;;;;;;5087690;28;20271;-47
2023/11/24 00:48:06;;;;;;;33.30;10.38;;;;;;;;;;5101146;28;20053;-48
2023/11/24 00:50:33;;;;;;;21.48;10.55;;;;;;;;;;5102290;28;20212;-50
2023/11/24 00:53:02;;;;;;;21.95;9.52;;;;;;;;;;5093462;28;20203;-47
2023/11/24 00:55:30;;;;;;;19.17;9.23;;;;;;;;;;5083244;28;20244;-45
2023/11/24 00:57:57;;;;;;;21.23;9.40;;;;;;;;;;5086801;28;20095;-49
2023/11/24 01:00:24;;;;;;;21.73;9.77;;;;;;;;;;5092963;28;20088;-48
2023/11/24 01:02:51;;;;;;;20.10;9.48;;;;;;;;;;5084045;28;20024;-47
2023/11/24 01:05:19;;;;;;;21.63;9.50;;;;;;;;;;5083821;28;20037;-46
2023/11/24 01:07:46;;;;;;;19.10;9.27;;;;;;;;;;5084121;28;20145;-45
2023/11/24 01:10:13;;;;;;;24.55;8.85;;;;;;;;;;5083748;28;20085;-56
2023/11/24 01:12:40;;;;;;;20.05;8.80;;;;;;;;;;5094855;28;20056;-48
2023/11/24 01:15:08;;;;;;;18.25;9.63;;;;;;;;;;5086605;28;20020;-45
2023/11/24 01:17:35;;;;;;;16.77;8.65;;;;;;;;;;5091716;28;20024;-46
2023/11/24 01:20:03;;;;;;;19.30;9.02;;;;;;;;;;5083612;28;20293;-45
2023/11/24 01:22:30;;;;;;;17.55;8.48;;;;;;;;;;5083597;28;20016;-44
2023/11/24 01:24:58;;;;;;;18.60;8.93;;;;;;;;;;5083676;28;20087;-48
2023/11/24 01:27:25;;;;;;;22.65;9.45;;;;;;;;;;5083533;28;20028;-46
2023/11/24 01:29:52;;;;;;;21.52;8.45;;;;;;;;;;5083535;28;20032;-49
2023/11/24 01:32:18;;;;;;;16.38;8.70;;;;;;;;;;5083292;28;20020;-50
2023/11/24 01:34:45;;;;;;;15.65;7.65;;;;;;;;;;5088938;28;20044;-45
2023/11/24 01:37:12;;;;;;;13.70;7.85;;;;;;;;;;5098509;28;20088;-46
2023/11/24 01:39:38;;;;;;;16.23;7.20;;;;;;;;;;5089699;28;20017;-47
2023/11/24 01:42:05;;;;;;;14.63;7.85;;;;;;;;;;5096680;28;20032;-45
2023/11/24 01:44:32;;;;;;;12.65;6.80;;;;;;;;;;5095066;28;20040;-53
2023/11/24 01:46:59;;;;;;;16.70;7.55;;;;;;;;;;5100740;28;20137;-49
2023/11/24 01:49:28;;;;;;;14.82;7.50;;;;;;;;;;5084945;28;20037;-43
2023/11/24 01:51:56;;;;;;;8.27;6.40;;;;;;;;;;5088554;28;20301;-45
2023/11/24 01:54:26;;;;;;;11.82;7.03;;;;;;;;;;5102230;28;20028;-47
2023/11/24 01:56:54;;;;;;;26.33;7.72;;;;;;;;;;5093152;28;20343;-44
2023/11/24 01:59:22;;;;;;;10.57;6.88;;;;;;;;;;5083886;28;20024;-44
2023/11/24 02:01:49;;;;;;;12.32;6.75;;;;;;;;;;5083325;28;20082;-47
2023/11/24 02:04:16;;;;;;;18.25;6.72;;;;;;;;;;5083612;28;20269;-50
2023/11/24 02:06:45;;;;;;;12.32;7.03;;;;;;;;;;5083819;28;20048;-46
2023/11/24 02:09:11;;;;;;;9.00;6.55;;;;;;;;;;5087393;28;20044;-50
2023/11/24 02:11:38;;;;;;;12.25;6.22;;;;;;;;;;5086870;28;20032;-49
2023/11/24 02:14:06;;;;;;;9.38;6.78;;;;;;;;;;5097666;28;20061;-47
2023/11/24 02:16:33;;;;;;;10.02;6.40;;;;;;;;;;5086879;28;20028;-44
2023/11/24 02:19:00;;;;;;;10.32;6.80;;;;;;;;;;5087041;28;20317;-57
2023/11/24 02:21:27;;;;;;;10.27;6.53;;;;;;;;;;5086784;28;20024;-46
2023/11/24 02:23:53;;;;;;;11.82;5.95;;;;;;;;;;5087190;28;20024;-47
2023/11/24 02:26:20;;;;;;;12.27;6.57;;;;;;;;;;5086619;28;20043;-49
2023/11/24 02:28:51;;;;;;;9.65;5.95;;;;;;;;;;5086488;28;20038;-47
2023/11/24 02:31:19;;;;;;;11.00;6.03;;;;;;;;;;5086579;28;20020;-53
2023/11/24 02:33:48;;;;;;;11.23;6.10;;;;;;;;;;5086653;28;20032;-50
2023/11/24 02:36:20;;;;;;;14.82;5.85;;;;;;;;;;5086472;28;20320;-50
2023/11/24 02:38:49;;;;;;;9.88;5.72;;;;;;;;;;5085461;28;20048;-52
2023/11/24 02:41:20;;;;;;;11.68;6.40;;;;;;;;;;5086388;28;20036;-49
2023/11/24 02:43:48;;;;;;;9.63;5.78;;;;;;;;;;5093870;28;20051;-45
2023/11/24 02:46:15;;;;;;;8.52;5.65;;;;;;;;;;5106483;28;20089;-47
2023/11/24 02:48:42;;;;;;;13.10;5.80;;;;;;;;;;5106832;28;20017;-44
2023/11/24 02:51:10;;;;;;;11.85;6.10;;;;;;;;;;5106587;28;20320;-48
2023/11/24 02:53:37;;;;;;;11.52;6.60;;;;;;;;;;5106535;28;20036;-49
2023/11/24 02:56:04;;;;;;;12.70;6.97;;;;;;;;;;5106425;28;20016;-50
2023/11/24 02:58:34;;;;;;;9.38;5.93;;;;;;;;;;5106388;28;20027;-49
2023/11/24 03:01:01;;;;;;;8.30;5.68;;;;;;;;;;5106251;28;20339;-49
2023/11/24 03:03:28;;;;;;;12.05;5.78;;;;;;;;;;5106489;28;20333;-47
2023/11/24 03:05:56;;;;;;;9.95;5.47;;;;;;;;;;5106334;28;20086;-49
2023/11/24 03:08:23;;;;;;;10.20;5.85;;;;;;;;;;5106333;28;20036;-43
2023/11/24 03:10:51;;;;;;;9.10;5.47;;;;;;;;;;5106081;28;20028;-46
2023/11/24 03:13:19;;;;;;;7.20;5.22;;;;;;;;;;5106041;28;20035;-44
2023/11/24 03:15:46;;;;;;;10.65;5.85;;;;;;;;;;5105935;28;20070;-45
2023/11/24 03:18:13;;;;;;;10.73;5.80;;;;;;;;;;5105597;28;20016;-45
2023/11/24 03:20:40;;;;;;;7.50;5.60;;;;;;;;;;5105656;28;20089;-49
2023/11/24 03:23:07;;;;;;;8.60;5.85;;;;;;;;;;5105911;28;20039;-44
2023/11/24 03:25:34;;;;;;;9.52;6.10;;;;;;;;;;5105878;28;20020;-48
2023/11/24 03:28:01;;;;;;;13.77;6.15;;;;;;;;;;5106179;28;20024;-48
2023/11/24 03:30:28;;;;;;;12.00;6.15;;;;;;;;;;5105653;28;20043;-46
2023/11/24 03:32:54;;;;;;;13.40;6.15;;;;;;;;;;5105821;28;20012;-47
2023/11/24 03:35:22;;;;;;;11.80;5.80;;;;;;;;;;5105650;28;20020;-46
2023/11/24 03:37:49;;;;;;;14.05;6.00;;;;;;;;;;5105736;28;20043;-43
2023/11/24 03:40:16;;;;;;;10.80;5.82;;;;;;;;;;5105669;28;20024;-43
2023/11/24 03:42:43;;;;;;;12.15;5.80;;;;;;;;;;5105543;28;20068;-43
2023/11/24 03:45:10;;;;;;;9.13;5.65;;;;;;;;;;5105207;28;20115;-47
2023/11/24 03:47:39;;;;;;;10.38;5.80;;;;;;;;;;5105367;28;20024;-43
2023/11/24 03:50:07;;;;;;;9.70;5.60;;;;;;;;;;5105348;28;20276;-49
2023/11/24 03:52:34;;;;;;;10.18;5.55;;;;;;;;;;5105240;28;20052;-46
2023/11/24 03:55:00;;;;;;;9.90;5.25;;;;;;;;;;5098194;28;20024;-46
2023/11/24 03:57:27;;;;;;;8.30;5.63;;;;;;;;;;5089867;28;20190;-45
2023/11/24 03:59:54;;;;;;;9.48;5.28;;;;;;;;;;5084865;28;20040;-49
2023/11/24 04:02:20;;;;;;;10.07;5.35;;;;;;;;;;5084920;28;20039;-48
2023/11/24 04:04:47;;;;;;;8.80;5.40;;;;;;;;;;5085319;28;20036;-45
2023/11/24 04:07:15;;;;;;;9.50;5.53;;;;;;;;;;5084816;28;20048;-50
2023/11/24 04:09:42;;;;;;;6.97;5.32;;;;;;;;;;5085060;28;20035;-44
2023/11/24 04:12:09;;;;;;;9.48;5.07;;;;;;;;;;5084808;28;20248;-43
2023/11/24 04:14:35;;;;;;;11.35;5.45;;;;;;;;;;5084947;28;20343;-45
2023/11/24 04:17:02;;;;;;;7.43;4.97;;;;;;;;;;5084629;28;20154;-46
2023/11/24 04:19:29;;;;;;;9.38;5.38;;;;;;;;;;5084309;28;20217;-43
2023/11/24 04:21:56;;;;;;;9.20;4.95;;;;;;;;;;5084558;28;20036;-46
2023/11/24 04:24:23;;;;;;;8.35;5.05;;;;;;;;;;5084428;28;20317;-42
2023/11/24 04:26:51;;;;;;;8.05;5.10;;;;;;;;;;5084900;28;20196;-42
2023/11/24 04:29:17;;;;;;;10.05;5.25;;;;;;;;;;5084335;28;20104;-44
2023/11/24 04:31:44;;;;;;;8.90;5.57;;;;;;;;;;5084766;28;20020;-45
2023/11/24 04:34:11;;;;;;;7.43;5.05;;;;;;;;;;5084315;28;20032;-44
2023/11/24 04:36:37;;;;;;;8.52;4.80;;;;;;;;;;5084768;28;20293;-44
2023/11/24 04:39:05;;;;;;;9.18;5.13;;;;;;;;;;5084158;28;20038;-45
2023/11/24 04:41:32;;;;;;;6.57;4.90;;;;;;;;;;5084133;28;20095;-44
2023/11/24 04:43:59;;;;;;;9.43;4.93;;;;;;;;;;5083929;28;20116;-46
2023/11/24 04:46:26;;;;;;;8.95;4.65;;;;;;;;;;5084376;28;20028;-45
2023/11/24 04:48:57;;;;;;;9.30;4.82;;;;;;;;;;5084011;28;20255;-44
2023/11/24 04:51:23;;;;;;;7.13;4.70;;;;;;;;;;5084491;28;20089;-43
2023/11/24 04:53:50;;;;;;;5.78;4.65;;;;;;;;;;5083936;28;20025;-44
2023/11/24 04:56:17;;;;;;;8.00;5.40;;;;;;;;;;5084458;28;20019;-44
2023/11/24 04:58:43;;;;;;;7.80;5.05;;;;;;;;;;5084195;28;20339;-43
2023/11/24 05:01:10;;;;;;;16.23;5.18;;;;;;;;;;5083977;28;20024;-45
2023/11/24 05:03:37;;;;;;;5.50;4.78;;;;;;;;;;5083826;28;20030;-46
2023/11/24 05:06:03;;;;;;;8.45;4.90;;;;;;;;;;5084274;28;20024;-44
2023/11/24 05:08:30;;;;;;;8.02;4.80;;;;;;;;;;5084113;28;20016;-43
2023/11/24 05:10:57;;;;;;;7.80;4.30;;;;;;;;;;5084173;28;20024;-45
2023/11/24 05:13:23;;;;;;;7.32;4.50;;;;;;;;;;5083866;28;20032;-49
2023/11/24 05:15:50;;;;;;;7.63;4.60;;;;;;;;;;5083945;28;20048;-45
2023/11/24 05:18:17;;;;;;;6.85;4.25;;;;;;;;;;5083900;28;20024;-46
2023/11/24 05:20:43;;;;;;;5.88;4.57;;;;;;;;;;5084052;28;20041;-48
2023/11/24 05:23:14;;;;;;;10.32;4.93;;;;;;;;;;5083679;28;20077;-47
2023/11/24 05:25:40;;;;;;;10.27;4.50;;;;;;;;;;5083622;28;20074;-50
2023/11/24 05:28:07;;;;;;;10.02;4.93;;;;;;;;;;5083732;28;20039;-43
2023/11/24 05:30:34;;;;;;;7.75;4.82;;;;;;;;;;5083821;28;20046;-43
2023/11/24 05:33:02;;;;;;;7.82;5.00;;;;;;;;;;5083746;28;20028;-47
2023/11/24 05:35:28;;;;;;;7.70;4.80;;;;;;;;;;5083761;28;20017;-44
2023/11/24 05:37:55;;;;;;;7.68;4.88;;;;;;;;;;5083601;28;20020;-47
2023/11/24 05:40:23;;;;;;;6.88;4.78;;;;;;;;;;5083709;28;20020;-45
2023/11/24 05:42:50;;;;;;;7.32;4.90;;;;;;;;;;5085828;28;20047;-45
2023/11/24 05:45:16;;;;;;;8.13;4.82;;;;;;;;;;5087359;28;20064;-44
2023/11/24 05:47:43;;;;;;;8.57;4.88;;;;;;;;;;5087557;28;20032;-44
2023/11/24 05:50:10;;;;;;;7.95;4.97;;;;;;;;;;5087514;28;20048;-46
2023/11/24 05:52:38;;;;;;;8.40;4.45;;;;;;;;;;5087236;28;20070;-47
2023/11/24 05:55:05;;;;;;;9.38;4.85;;;;;;;;;;5087608;28;20016;-47
2023/11/24 05:57:31;;;;;;;9.90;4.50;;;;;;;;;;5087315;28;20028;-43
2023/11/24 05:59:58;;;;;;;6.03;3.92;;;;;;;;;;5087100;28;20300;-45
2023/11/24 06:02:25;;;;;;;6.93;4.50;;;;;;;;;;5087232;28;20040;-48
2023/11/24 06:04:52;;;;;;;7.63;4.13;;;;;;;;;;5087211;28;20032;-49
2023/11/24 06:07:19;;;;;;;9.63;4.22;;;;;;;;;;5086894;28;20048;-50
2023/11/24 06:09:46;;;;;;;4.85;3.83;;;;;;;;;;5087112;28;20174;-48
2023/11/24 06:12:13;;;;;;;4.97;4.03;;;;;;;;;;5087051;28;20037;-55
2023/11/24 06:14:39;;;;;;;7.30;4.00;;;;;;;;;;5086782;28;20020;-50
2023/11/24 06:17:06;;;;;;;9.90;4.18;;;;;;;;;;5086907;28;20051;-48
2023/11/24 06:19:33;;;;;;;9.40;4.38;;;;;;;;;;5101820;28;20028;-50
2023/11/24 06:22:00;;;;;;;6.95;4.22;;;;;;;;;;5107093;28;20028;-53
2023/11/24 06:24:27;;;;;;;8.77;4.15;;;;;;;;;;5106976;28;20024;-50
2023/11/24 06:26:53;;;;;;;8.02;4.30;;;;;;;;;;5107137;28;20082;-50
2023/11/24 06:29:20;;;;;;;6.43;4.32;;;;;;;;;;5106926;28;20027;-55
2023/11/24 06:31:47;;;;;;;5.30;4.05;;;;;;;;;;5107493;28;20096;-52
2023/11/24 06:34:14;;;;;;;5.55;3.63;;;;;;;;;;5107011;28;20351;-51
2023/11/24 06:36:40;;;;;;;6.30;4.22;;;;;;;;;;5107335;28;20023;-47
2023/11/24 06:39:10;;;;;;;5.22;3.55;;;;;;;;;;5106774;28;20036;-51
2023/11/24 06:41:39;;;;;;;6.72;3.90;;;;;;;;;;5107254;28;20032;-50
2023/11/24 06:44:06;;;;;;;5.85;3.67;;;;;;;;;;5106493;28;20086;-52
2023/11/24 06:46:33;;;;;;;5.82;3.65;;;;;;;;;;5107108;28;20024;-49
2023/11/24 06:49:00;;;;;;;6.22;3.90;;;;;;;;;;5106576;28;20111;-46
2023/11/24 06:51:27;;;;;;;8.68;4.03;;;;;;;;;;5105005;28;20016;-49
2023/11/24 06:53:54;;;;;;;6.60;3.85;;;;;;;;;;5094973;28;20158;-44
2023/11/24 06:56:21;;;;;;;7.00;3.83;;;;;;;;;;5086599;28;20028;-44
2023/11/24 06:58:47;;;;;;;7.72;3.90;;;;;;;;;;5086143;28;20328;-45
2023/11/24 07:01:14;;;;;;;5.53;3.83;;;;;;;;;;5086492;28;20412;-45
2023/11/24 07:03:41;;;;;;;5.82;3.92;;;;;;;;;;5086066;28;20036;-42
2023/11/24 07:06:08;;;;;;;6.57;3.88;;;;;;;;;;5086770;28;20027;-42
2023/11/24 07:08:35;;;;;;;6.97;4.00;;;;;;;;;;5085940;28;20020;-43
2023/11/24 07:11:04;;;;;;;6.22;3.92;;;;;;;;;;5085901;28;20243;-44
2023/11/24 07:13:31;;;;;;;6.57;4.20;;;;;;;;;;5085854;28;20232;-48
2023/11/24 07:15:57;;;;;;;5.43;3.75;;;;;;;;;;5086083;28;20023;-52
2023/11/24 07:18:25;;;;;;;7.40;3.88;;;;;;;;;;5085871;28;20036;-45
2023/11/24 07:20:52;;;;;;;8.18;4.38;;;;;;;;;;5086058;28;20052;-45
2023/11/24 07:23:19;;;;;;;6.70;4.05;;;;;;;;;;5085644;28;20081;-48
2023/11/24 07:25:48;;;;;;;8.55;3.97;;;;;;;;;;5085981;28;20055;-46
2023/11/24 07:28:15;;;;;;;7.53;3.90;;;;;;;;;;5085570;28;20024;-51
2023/11/24 07:30:42;;;;;;;6.45;3.95;;;;;;;;;;5085713;28;20340;-51
2023/11/24 07:33:09;;;;;;;6.60;3.83;;;;;;;;;;5085490;28;20075;-49
2023/11/24 07:35:35;;;;;;;6.53;3.83;;;;;;;;;;5085705;28;20080;-48
2023/11/24 07:38:03;;;;;;;8.18;4.40;;;;;;;;;;5085340;28;20092;-49
2023/11/24 07:40:30;;;;;;;7.15;3.97;;;;;;;;;;5085940;28;20249;-54
2023/11/24 07:42:57;;;;;;;8.60;4.05;;;;;;;;;;5085289;28;20212;-52
2023/11/24 07:45:25;;;;;;;7.28;3.97;;;;;;;;;;5085092;28;20037;-46
2023/11/24 07:47:51;;;;;;;7.20;4.10;;;;;;;;;;5085157;28;20221;-46
2023/11/24 07:50:18;;;;;;;7.65;4.03;;;;;;;;;;5085246;28;20020;-52
2023/11/24 07:52:46;;;;;;;15.20;4.70;;;;;;;;;;5084970;28;20021;-50
2023/11/24 07:55:16;;;;;;;6.43;4.60;;;;;;;;;;5084938;28;20251;-49
2023/11/24 07:57:42;;;;;;;8.15;4.40;;;;;;;;;;5084984;28;20027;-50
2023/11/24 08:00:12;;;;;;;5.93;3.75;;;;;;;;;;5085055;28;20055;-48
2023/11/24 08:02:42;;;;;;;6.93;4.28;;;;;;;;;;5084877;28;20071;-51
2023/11/24 08:05:09;;;;;;;23.50;4.63;;;;;;;;;;5084565;28;20027;-48
2023/11/24 08:07:37;;;;;;;10.50;4.43;;;;;;;;;;5084968;28;20349;-54
2023/11/24 08:10:04;;;;;;;7.07;3.70;;;;;;;;;;5084843;28;20032;-46
2023/11/24 08:12:31;;;;;;;7.45;3.72;;;;;;;;;;5084609;28;20031;-49
2023/11/24 08:15:00;;;;;;;7.45;3.78;;;;;;;;;;5084796;28;20020;-47
2023/11/24 08:17:27;;;;;;;10.52;3.50;;;;;;;;;;5084551;28;20336;-45
2023/11/24 08:19:54;;;;;;;6.07;3.80;;;;;;;;;;5084521;28;20346;-54
2023/11/24 08:22:21;;;;;;;7.60;3.92;;;;;;;;;;5084726;28;20074;-49
2023/11/24 08:24:47;;;;;;;6.47;3.33;;;;;;;;;;5084530;28;20032;-55
2023/11/24 08:27:14;;;;;;;5.90;3.47;;;;;;;;;;5084447;28;20036;-45
2023/11/24 08:29:40;;;;;;;5.82;3.60;;;;;;;;;;5084443;28;20048;-46
2023/11/24 08:32:10;;;;;;;5.50;3.33;;;;;;;;;;5084672;28;20028;-52
2023/11/24 08:34:37;;;;;;;6.30;3.20;;;;;;;;;;5084327;28;20024;-51
2023/11/24 08:37:06;;;;;;;5.63;3.78;;;;;;;;;;5084294;28;20031;-49
2023/11/24 08:39:32;;;;;;;5.32;3.50;;;;;;;;;;5084147;28;20038;-49
2023/11/24 08:41:59;;;;;;;6.38;3.50;;;;;;;;;;5084210;28;20032;-48
2023/11/24 08:44:26;;;;;;;4.13;3.25;;;;;;;;;;5083952;28;20112;-48
2023/11/24 08:46:53;;;;;;;5.43;3.13;;;;;;;;;;5084340;28;20299;-47
2023/11/24 08:49:20;;;;;;;6.22;3.88;;;;;;;;;;5084012;28;20021;-51
2023/11/24 08:51:46;;;;;;;7.60;3.72;;;;;;;;;;5084644;28;20032;-45
2023/11/24 08:54:13;;;;;;;7.95;3.80;;;;;;;;;;5084265;28;20232;-54
2023/11/24 08:56:40;;;;;;;7.15;3.10;;;;;;;;;;5084569;28;20016;-47
2023/11/24 08:59:10;;;;;;;8.00;3.60;;;;;;;;;;5084071;28;20032;-49
2023/11/24 09:01:37;;;;;;;6.38;3.65;;;;;;;;;;5084397;28;20024;-48
2023/11/24 09:04:04;;;;;;;7.15;3.60;;;;;;;;;;5084005;28;20029;-51
2023/11/24 09:06:37;;;;;;;5.05;3.42;;;;;;;;;;5084320;28;20064;-45
2023/11/24 09:09:07;;;;;;;4.25;2.97;;;;;;;;;;5083971;28;20029;-54
2023/11/24 09:11:34;;;;;;;6.78;3.90;;;;;;;;;;5084238;28;20020;-44
2023/11/24 09:14:04;;;;;;;9.52;3.50;;;;;;;;;;5084063;28;20044;-45
2023/11/24 09:16:32;;;;;;;6.15;3.33;;;;;;;;;;5083623;28;20316;-49
2023/11/24 09:18:59;;;;;;;5.82;3.05;;;;;;;;;;5083624;28;20036;-49
2023/11/24 09:21:26;;;;;;;5.47;3.05;;;;;;;;;;5084178;28;20020;-48
2023/11/24 09:23:53;;;;;;;7.75;3.08;;;;;;;;;;5083792;28;20021;-50
2023/11/24 09:26:20;;;;;;;6.05;3.42;;;;;;;;;;5083524;28;20021;-49
2023/11/24 09:28:47;;;;;;;4.95;2.88;;;;;;;;;;5083625;28;20024;-44
2023/11/24 09:31:14;;;;;;;5.22;3.08;;;;;;;;;;5084176;28;20021;-46
2023/11/24 09:33:41;;;;;;;6.30;3.38;;;;;;;;;;5083544;28;20025;-49
2023/11/24 09:36:08;;;;;;;4.25;2.90;;;;;;;;;;5083981;28;20031;-49
2023/11/24 09:38:35;;;;;;;5.95;3.33;;;;;;;;;;5083741;28;20020;-43
2023/11/24 09:41:08;;;;;;;5.60;3.13;;;;;;;;;;5083808;28;20344;-49
2023/11/24 09:43:37;;;;;;;5.72;2.97;;;;;;;;;;5083562;28;20047;-44
2023/11/24 09:46:04;;;;;;;8.90;3.40;;;;;;;;;;5083837;28;20028;-43
2023/11/24 09:48:33;;;;;;;6.38;3.30;;;;;;;;;;5083362;28;20032;-44
2023/11/24 09:51:05;;;;;;;6.57;3.40;;;;;;;;;;5083776;28;20024;-44
2023/11/24 09:53:36;;;;;;;5.32;3.17;;;;;;;;;;5083267;28;20343;-49
2023/11/24 09:56:04;;;;;;;6.80;3.53;;;;;;;;;;5083704;28;20028;-45
2023/11/24 09:58:31;;;;;;;6.78;2.92;;;;;;;;;;5083393;28;20033;-49
2023/11/24 10:01:10;;;;;;;5.40;3.15;;;;;;;;;;5083841;28;20308;-49
2023/11/24 10:03:40;;;;;;;3.95;2.95;;;;;;;;;;5083438;28;20036;-46
2023/11/24 10:06:10;;;;;;;9.50;3.30;;;;;;;;;;5094433;28;20028;-50
2023/11/24 10:08:41;;;;;;;5.93;3.53;;;;;;;;;;5103719;28;20031;-47
2023/11/24 10:11:14;;;;;;;6.35;3.17;;;;;;;;;;5103815;28;20039;-45
2023/11/24 10:13:45;;;;;;;6.38;3.17;;;;;;;;;;5103427;28;20036;-51
2023/11/24 10:16:12;;;;;;;6.75;3.67;;;;;;;;;;5103820;28;20020;-48
2023/11/24 10:18:41;;;;;;;6.35;3.03;;;;;;;;;;5103569;28;20021;-48
2023/11/24 10:21:11;;;;;;;6.05;3.42;;;;;;;;;;5103918;28;20075;-47
2023/11/24 10:23:39;;;;;;;7.15;3.63;;;;;;;;;;5103411;28;20078;-44
2023/11/24 10:26:21;;;;;;;7.53;3.75;;;;;;;;;;5103350;28;20031;-47
2023/11/24 10:28:48;;;;;;;11.38;3.90;;;;;;;;;;5105596;28;20364;-45
2023/11/24 10:31:15;;;;;;;12.02;3.55;;;;;;;;;;5107495;28;20094;-54
2023/11/24 10:33:42;;;;;;;8.57;4.15;;;;;;;;;;5107071;28;20024;-50
2023/11/24 10:36:09;;;;;;;9.05;4.40;;;;;;;;;;5106479;28;20032;-52
2023/11/24 10:38:39;;;;;;;11.20;4.28;;;;;;;;;;5086627;28;20040;-50
2023/11/24 10:41:09;;;;;;;10.85;4.30;;;;;;;;;;5086852;28;20025;-51
2023/11/24 10:43:38;;;;;;;12.48;5.38;;;;;;;;;;5089674;28;20028;-51
2023/11/24 10:46:08;;;;;;;9.52;5.32;;;;;;;;;;5107084;28;20208;-45
2023/11/24 10:48:37;;;;;;;9.45;4.97;;;;;;;;;;5106648;28;20426;-53
2023/11/24 10:51:17;;;;;;;10.00;5.03;;;;;;;;;;5106958;28;20035;-44
2023/11/24 10:53:49;;;;;;;13.60;4.75;;;;;;;;;;5106451;28;20032;-49
2023/11/24 10:56:17;;;;;;;8.05;4.28;;;;;;;;;;5107059;28;20024;-43
2023/11/24 10:58:45;;;;;;;6.22;4.18;;;;;;;;;;5106444;28;20091;-46
2023/11/24 11:01:13;;;;;;;9.05;4.10;;;;;;;;;;5099990;28;20161;-51
2023/11/24 11:03:42;;;;;;;9.23;3.63;;;;;;;;;;5094713;28;20087;-44
2023/11/24 11:06:08;;;;;;;8.35;4.05;;;;;;;;;;5091793;28;20039;-48
2023/11/24 11:08:40;;;;;;;10.90;4.03;;;;;;;;;;5097526;28;20024;-50
2023/11/24 11:11:12;;;;;;;8.95;3.75;;;;;;;;;;5092332;28;20038;-51
2023/11/24 11:13:44;;;;;;;10.45;4.07;;;;;;;;;;5089666;28;20075;-44
2023/11/24 11:16:14;;;;;;;8.10;3.88;;;;;;;;;;5095787;28;20016;-46
2023/11/24 11:18:40;;;;;;;10.20;3.95;;;;;;;;;;5097876;28;20031;-46
2023/11/24 11:21:30;;;;;;;8.65;4.43;;;;;;;;;;5096629;28;20042;-48
2023/11/24 11:23:57;;;;;;;13.85;4.20;;;;;;;;;;5086483;28;20060;-45
2023/11/24 11:26:42;;;;;;;13.38;4.40;;;;;;;;;;5092008;28;20091;-48
2023/11/24 11:29:09;;;;;;;9.88;4.40;;;;;;;;;;5096279;28;20022;-43
2023/11/24 11:31:37;;;;;;;13.18;4.30;;;;;;;;;;5094649;28;20027;-46
2023/11/24 11:34:16;;;;;;;9.38;4.40;;;;;;;;;;5094625;28;20087;-48
2023/11/24 11:37:05;;;;;;;12.93;4.90;;;;;;;;;;5098099;28;20012;-46
2023/11/24 11:39:37;;;;;;;17.65;4.57;;;;;;;;;;5105973;28;20032;-47
2023/11/24 11:42:04;;;;;;;9.23;4.47;;;;;;;;;;5106333;28;20055;-46
2023/11/24 11:44:34;;;;;;;10.65;4.10;;;;;;;;;;5105960;28;20059;-47
2023/11/24 11:47:26;;;;;;;11.82;4.38;;;;;;;;;;5106044;28;20028;-47
2023/11/24 11:49:57;;;;;;;10.38;4.03;;;;;;;;;;5104932;28;20464;-51
2023/11/24 11:52:25;;;;;;;13.65;4.80;;;;;;;;;;5103744;28;20077;-48
2023/11/24 11:54:53;;;;;;;8.70;4.25;;;;;;;;;;5103653;28;20019;-46
2023/11/24 11:57:23;;;;;;;9.00;4.68;;;;;;;;;;5103648;28;20272;-49
2023/11/24 11:59:53;;;;;;;12.40;4.95;;;;;;;;;;5103427;28;20068;-48
2023/11/24 12:02:21;;;;;;;9.95;5.13;;;;;;;;;;5104107;28;20024;-47
2023/11/24 12:04:48;;;;;;;9.68;4.82;;;;;;;;;;5104688;28;20062;-45
2023/11/24 12:07:15;;;;;;;13.68;5.38;;;;;;;;;;5105693;28;20161;-47
2023/11/24 12:09:42;;;;;;;9.27;5.53;;;;;;;;;;5105294;28;20024;-47
2023/11/24 12:12:10;;;;;;;11.90;5.90;;;;;;;;;;5105761;28;20016;-48
2023/11/24 12:14:41;;;;;;;14.32;5.93;;;;;;;;;;5105429;28;20012;-47
2023/11/24 12:17:09;;;;;;;13.35;6.03;;;;;;;;;;5105158;28;20027;-49
2023/11/24 12:19:37;;;;;;;16.25;6.50;;;;;;;;;;5105112;28;20319;-46
2023/11/24 12:22:07;;;;;;;15.20;6.30;;;;;;;;;;5105076;28;20051;-49
2023/11/24 12:24:36;;;;;;;13.00;6.60;;;;;;;;;;5105072;28;20091;-48
2023/11/24 12:27:03;;;;;;;12.95;6.43;;;;;;;;;;5104868;28;20024;-47
2023/11/24 12:29:30;;;;;;;11.23;6.43;;;;;;;;;;5104579;28;20343;-50
2023/11/24 12:31:58;;;;;;;13.48;6.35;;;;;;;;;;5105089;28;20038;-52
2023/11/24 12:34:28;;;;;;;15.80;7.60;;;;;;;;;;5104839;28;20043;-51
2023/11/24 12:36:56;;;;;;;13.27;7.70;;;;;;;;;;5104895;28;20024;-48
2023/11/24 12:39:30;;;;;;;14.70;7.82;;;;;;;;;;5104928;28;20032;-48
2023/11/24 12:41:59;;;;;;;10.57;6.65;;;;;;;;;;5104702;28;20035;-49
2023/11/24 12:44:26;;;;;;;12.52;7.00;;;;;;;;;;5104652;28;20044;-46
2023/11/24 12:47:12;;;;;;;14.40;6.95;;;;;;;;;;5104982;28;20077;-48
2023/11/24 12:50:00;;;;;;;14.57;6.45;;;;;;;;;;5104755;28;20028;-50
2023/11/24 12:52:32;;;;;;;12.35;6.57;;;;;;;;;;5103769;28;20030;-45
2023/11/24 12:54:59;;;;;;;10.50;6.00;;;;;;;;;;5104921;28;20028;-47
2023/11/24 12:57:26;;;;;;;9.95;6.05;;;;;;;;;;5104595;28;20304;-48
2023/11/24 12:59:56;;;;;;;15.00;6.00;;;;;;;;;;5104466;28;20028;-44
2023/11/24 13:02:27;;;;;;;12.55;6.22;;;;;;;;;;5104972;28;20201;-51
2023/11/24 13:04:53;;;;;;;12.40;6.13;;;;;;;;;;5104836;28;20335;-52
2023/11/24 13:07:21;;;;;;;11.73;5.70;;;;;;;;;;5104202;28;20020;-50
2023/11/24 13:09:49;;;;;;;14.15;6.30;;;;;;;;;;5104639;28;20039;-51
2023/11/24 13:12:18;;;;;;;11.00;6.05;;;;;;;;;;5104629;28;20024;-47
2023/11/24 13:14:46;;;;;;;11.20;5.63;;;;;;;;;;5104221;28;20025;-51
2023/11/24 13:17:13;;;;;;;10.52;5.57;;;;;;;;;;5104490;28;20032;-46
2023/11/24 13:19:39;;;;;;;14.07;5.90;;;;;;;;;;5104583;28;20043;-48
2023/11/24 13:22:09;;;;;;;7.72;5.50;;;;;;;;;;5104410;28;20216;-51
2023/11/24 13:24:36;;;;;;;10.10;5.90;;;;;;;;;;5104438;28;20024;-52
2023/11/24 13:27:04;;;;;;;11.60;5.53;;;;;;;;;;5104425;28;20031;-48
2023/11/24 13:29:31;;;;;;;12.27;5.80;;;;;;;;;;5103738;28;20073;-51
2023/11/24 13:31:58;;;;;;;31.85;7.60;;;;;;;;;;5104407;28;20054;-46
2023/11/24 13:34:25;;;;;;;26.75;7.60;;;;;;;;;;5104312;28;20312;-48
2023/11/24 13:36:53;;;;;;;21.65;6.82;;;;;;;;;;5104761;28;20024;-48
2023/11/24 13:39:24;;;;;;;20.48;5.97;;;;;;;;;;5103959;28;20099;-51
2023/11/24 13:41:54;;;;;;;19.38;6.35;;;;;;;;;;5104912;28;20339;-49
2023/11/24 13:44:20;;;;;;;15.77;5.88;;;;;;;;;;5103985;28;20057;-49
2023/11/24 13:46:49;;;;;;;15.45;5.97;;;;;;;;;;5104600;28;20238;-52
2023/11/24 13:49:16;;;;;;;12.18;5.63;;;;;;;;;;5103740;28;20042;-51
2023/11/24 13:51:43;;;;;;;11.10;5.78;;;;;;;;;;5104663;28;20085;-51
2023/11/24 13:54:12;;;;;;;11.80;6.28;;;;;;;;;;5104395;28;20016;-49
2023/11/24 13:56:44;;;;;;;13.80;6.13;;;;;;;;;;5104560;28;20032;-49
2023/11/24 13:59:14;;;;;;;16.20;5.93;;;;;;;;;;5104396;28;20031;-48
2023/11/24 14:01:45;;;;;;;13.25;6.20;;;;;;;;;;5104490;28;20039;-52
2023/11/24 14:04:14;;;;;;;12.35;6.18;;;;;;;;;;5106680;28;20031;-50
2023/11/24 14:06:41;;;;;;;12.07;6.53;;;;;;;;;;5108584;28;20295;-50
2023/11/24 14:09:19;;;;;;;10.48;6.55;;;;;;;;;;5108060;28;20024;-51
2023/11/24 14:11:46;;;;;;;11.27;5.97;;;;;;;;;;5108334;28;20051;-50
2023/11/24 14:14:13;;;;;;;11.32;6.35;;;;;;;;;;5107468;28;20012;-49
2023/11/24 14:16:41;;;;;;;14.02;6.30;;;;;;;;;;5107691;28;20040;-52
2023/11/24 14:19:09;;;;;;;10.80;6.32;;;;;;;;;;5107519;28;20035;-51
2023/11/24 14:21:36;;;;;;;9.63;6.43;;;;;;;;;;5108170;28;20024;-54
2023/11/24 14:24:04;;;;;;;12.57;6.80;;;;;;;;;;5107422;28;20069;-53
2023/11/24 14:26:33;;;;;;;17.02;6.85;;;;;;;;;;5107321;28;20020;-52
2023/11/24 14:29:03;;;;;;;29.30;13.68;;;;;;;;;;5107507;28;20181;-54
2023/11/24 14:31:30;;;;;;;27.35;15.50;;;;;;;;;;5107367;28;20028;-51
2023/11/24 14:34:00;;;;;;;27.85;16.65;;;;;;;;;;5107244;28;20043;-51
2023/11/24 14:36:29;;;;;;;30.75;19.30;;;;;;;;;;5107704;28;20024;-46
2023/11/24 14:38:59;;;;;;;32.70;19.05;;;;;;;;;;5106958;28;20052;-48
2023/11/24 14:41:26;;;;;;;29.33;16.17;;;;;;;;;;5107388;28;20027;-49